Time;durP1;ratioP1;P1;durP2;ratioP2;P2;SDS_P1;SDS_P2;PMS_P1;PMS_P2;Temp;Humidity;BMP_temperature;BMP_pressure;BME280_temperature;BME280_humidity;BME280_pressure;Samples;Min_cycle;Max_cycle;Signal;HPM_P1;HPM_P2
2022/09/13 00:01:09;;;;;;;10.83;7.37;;;;;;;;;;5098689;28;20248;-79
2022/09/13 00:04:13;;;;;;;9.23;8.13;;;;;;;;;;5100403;28;20198;-79
2022/09/13 00:07:17;;;;;;;12.50;8.70;;;;;;;;;;5100561;28;20530;-79
2022/09/13 00:10:23;;;;;;;10.10;8.67;;;;;;;;;;5112022;28;20174;-80
2022/09/13 00:13:27;;;;;;;12.43;10.27;;;;;;;;;;5088302;28;20175;-79
2022/09/13 00:16:32;;;;;;;10.57;8.90;;;;;;;;;;5089601;28;20181;-80
2022/09/13 00:19:36;;;;;;;12.07;9.67;;;;;;;;;;5101557;28;20175;-79
2022/09/13 00:22:40;;;;;;;11.10;9.90;;;;;;;;;;5113007;28;20211;-80
2022/09/13 00:25:45;;;;;;;12.53;9.47;;;;;;;;;;5087693;28;20179;-79
2022/09/13 00:28:54;;;;;;;9.53;7.47;;;;;;;;;;5097717;28;20175;-80
2022/09/13 00:31:58;;;;;;;8.70;7.80;;;;;;;;;;5097830;28;20215;-79
2022/09/13 00:35:04;;;;;;;9.83;8.63;;;;;;;;;;5075340;28;20195;-79
2022/09/13 00:38:09;;;;;;;9.27;8.27;;;;;;;;;;5098294;28;20539;-80
2022/09/13 00:41:16;;;;;;;12.07;9.07;;;;;;;;;;5086275;28;20693;-79
2022/09/13 00:44:56;;;;;;;11.63;9.10;;;;;;;;;;5097580;28;20178;-80
2022/09/13 00:48:05;;;;;;;10.70;8.77;;;;;;;;;;5098245;28;20195;-80
2022/09/13 00:51:10;;;;;;;13.40;9.23;;;;;;;;;;5087156;28;20214;-80
2022/09/13 00:54:16;;;;;;;12.17;9.43;;;;;;;;;;5110701;28;20175;-79
2022/09/13 00:57:23;;;;;;;12.13;8.73;;;;;;;;;;5098208;28;20187;-79
2022/09/13 01:00:27;;;;;;;11.10;8.93;;;;;;;;;;5085705;28;20206;-79
2022/09/13 01:03:33;;;;;;;11.40;8.70;;;;;;;;;;5098621;28;20202;-79
2022/09/13 01:06:40;;;;;;;9.57;8.17;;;;;;;;;;5087088;28;20175;-80
2022/09/13 01:09:48;;;;;;;9.83;7.90;;;;;;;;;;5075045;28;20183;-79
2022/09/13 01:12:59;;;;;;;9.70;8.00;;;;;;;;;;5097191;28;20206;-79
2022/09/13 01:16:04;;;;;;;10.07;6.93;;;;;;;;;;5109349;28;20183;-79
2022/09/13 01:19:08;;;;;;;9.67;7.90;;;;;;;;;;5074443;28;20175;-80
2022/09/13 01:22:25;;;;;;;9.10;8.10;;;;;;;;;;5086689;28;20214;-80
2022/09/13 01:25:50;;;;;;;11.67;8.17;;;;;;;;;;5086122;28;20623;-79
2022/09/13 01:29:25;;;;;;;10.20;7.93;;;;;;;;;;5096789;28;20180;-80
2022/09/13 01:33:25;;;;;;;10.00;7.67;;;;;;;;;;5085758;28;20211;-80
2022/09/13 01:36:48;;;;;;;10.67;7.57;;;;;;;;;;5024805;28;20181;-80
2022/09/13 01:40:18;;;;;;;10.73;7.70;;;;;;;;;;5034425;28;20189;-80
2022/09/13 01:43:41;;;;;;;9.93;7.70;;;;;;;;;;5100902;28;20202;-80
2022/09/13 01:46:54;;;;;;;9.50;6.57;;;;;;;;;;5113482;28;20179;-80
2022/09/13 01:50:22;;;;;;;11.43;7.50;;;;;;;;;;5102227;28;20179;-80
2022/09/13 01:54:10;;;;;;;7.93;7.13;;;;;;;;;;5108117;28;20175;-80
2022/09/13 01:57:55;;;;;;;8.40;7.00;;;;;;;;;;5089236;28;20195;-80
2022/09/13 02:01:17;;;;;;;9.47;7.10;;;;;;;;;;5030881;28;20620;-80
2022/09/13 02:04:29;;;;;;;9.03;7.13;;;;;;;;;;5100837;28;20179;-80
2022/09/13 02:07:41;;;;;;;8.70;7.27;;;;;;;;;;5100806;28;20515;-79
2022/09/13 02:10:49;;;;;;;10.70;6.97;;;;;;;;;;5088612;28;20187;-79
2022/09/13 02:14:15;;;;;;;8.97;7.00;;;;;;;;;;5089013;28;20633;-80
2022/09/13 02:17:23;;;;;;;9.03;6.33;;;;;;;;;;5101385;28;20179;-79
2022/09/13 02:20:34;;;;;;;7.63;6.63;;;;;;;;;;5089131;28;20207;-79
2022/09/13 02:23:47;;;;;;;9.30;7.93;;;;;;;;;;5101342;28;20190;-79
2022/09/13 02:26:55;;;;;;;9.93;7.97;;;;;;;;;;5112606;28;20511;-80
2022/09/13 02:30:09;;;;;;;9.50;7.67;;;;;;;;;;5100108;28;20179;-79
2022/09/13 02:33:17;;;;;;;10.57;8.40;;;;;;;;;;5089025;28;20191;-80
2022/09/13 02:36:26;;;;;;;11.47;7.93;;;;;;;;;;5078361;28;20182;-80
2022/09/13 02:39:32;;;;;;;8.33;7.43;;;;;;;;;;5089014;28;20187;-79
2022/09/13 02:42:44;;;;;;;10.30;7.70;;;;;;;;;;5088077;28;20215;-80
2022/09/13 02:46:07;;;;;;;10.73;8.30;;;;;;;;;;5099972;28;20183;-80
2022/09/13 02:49:38;;;;;;;9.80;7.43;;;;;;;;;;5111030;28;20180;-80
2022/09/13 02:52:56;;;;;;;8.43;7.30;;;;;;;;;;5079942;28;20221;-79
2022/09/13 02:56:25;;;;;;;8.70;7.53;;;;;;;;;;5100088;28;20682;-80
2022/09/13 02:59:29;;;;;;;8.90;7.63;;;;;;;;;;5100199;28;20174;-79
2022/09/13 03:02:37;;;;;;;10.90;7.73;;;;;;;;;;5100005;28;20227;-80
2022/09/13 03:05:42;;;;;;;10.30;7.50;;;;;;;;;;5100005;28;20175;-80
2022/09/13 03:08:46;;;;;;;10.27;7.60;;;;;;;;;;5099767;28;20171;-79
2022/09/13 03:12:16;;;;;;;9.80;8.27;;;;;;;;;;5099407;28;20206;-79
2022/09/13 03:15:29;;;;;;;9.40;7.23;;;;;;;;;;5100777;28;20182;-80
2022/09/13 03:18:50;;;;;;;8.63;7.73;;;;;;;;;;5104936;28;20187;-80
2022/09/13 03:22:17;;;;;;;9.80;7.70;;;;;;;;;;5115414;28;20227;-80
2022/09/13 03:25:31;;;;;;;12.83;8.00;;;;;;;;;;5087247;28;20175;-79
2022/09/13 03:28:44;;;;;;;9.97;8.20;;;;;;;;;;5087803;28;20198;-80
2022/09/13 03:31:51;;;;;;;8.70;7.80;;;;;;;;;;5099523;28;20207;-79
2022/09/13 03:35:31;;;;;;;9.60;8.43;;;;;;;;;;5100389;28;20179;-79
2022/09/13 03:38:53;;;;;;;11.27;8.27;;;;;;;;;;5099722;28;20618;-79
2022/09/13 03:42:04;;;;;;;9.10;8.10;;;;;;;;;;5099767;28;20230;-80
2022/09/13 03:45:10;;;;;;;12.27;7.93;;;;;;;;;;5100691;28;20187;-79
2022/09/13 03:48:16;;;;;;;9.63;7.73;;;;;;;;;;5111364;28;20190;-80
2022/09/13 03:51:21;;;;;;;8.73;7.57;;;;;;;;;;5099992;28;20214;-79
2022/09/13 03:54:30;;;;;;;9.30;7.77;;;;;;;;;;5110990;28;20178;-79
2022/09/13 03:57:35;;;;;;;8.70;7.57;;;;;;;;;;5100273;28;20175;-80
2022/09/13 04:00:40;;;;;;;12.30;7.17;;;;;;;;;;5097801;28;20179;-79
2022/09/13 04:03:44;;;;;;;10.43;7.67;;;;;;;;;;5098809;28;20204;-79
2022/09/13 04:06:48;;;;;;;9.37;7.23;;;;;;;;;;5099709;28;20175;-79
2022/09/13 04:09:53;;;;;;;13.13;7.23;;;;;;;;;;5086935;28;20175;-79
2022/09/13 04:12:59;;;;;;;8.97;7.60;;;;;;;;;;5110078;28;20218;-79
2022/09/13 04:16:04;;;;;;;9.23;7.77;;;;;;;;;;5098420;28;20645;-80
2022/09/13 04:19:09;;;;;;;9.27;7.67;;;;;;;;;;5097883;28;20179;-79
2022/09/13 04:22:13;;;;;;;11.97;7.57;;;;;;;;;;5086432;28;20230;-79
2022/09/13 04:25:19;;;;;;;15.77;9.13;;;;;;;;;;5086066;28;20190;-79
2022/09/13 04:28:23;;;;;;;11.73;8.47;;;;;;;;;;5085682;28;20182;-79
2022/09/13 04:31:27;;;;;;;11.57;8.10;;;;;;;;;;5097747;28;20210;-79
2022/09/13 04:34:32;;;;;;;11.40;8.70;;;;;;;;;;5099051;28;20519;-79
2022/09/13 04:37:37;;;;;;;10.87;8.23;;;;;;;;;;5097923;28;20175;-79
2022/09/13 04:40:42;;;;;;;13.87;8.60;;;;;;;;;;5097127;28;20179;-79
2022/09/13 04:43:50;;;;;;;15.13;8.27;;;;;;;;;;5085997;28;20638;-80
2022/09/13 04:46:54;;;;;;;10.77;7.37;;;;;;;;;;5098119;28;20198;-80
2022/09/13 04:49:58;;;;;;;12.13;7.90;;;;;;;;;;5097862;28;20179;-79
2022/09/13 04:53:02;;;;;;;10.13;7.97;;;;;;;;;;5097453;28;20207;-80
2022/09/13 04:56:09;;;;;;;9.83;8.07;;;;;;;;;;5109480;28;20194;-80
2022/09/13 04:59:13;;;;;;;10.37;7.97;;;;;;;;;;5074334;28;20179;-80
2022/09/13 05:02:18;;;;;;;10.13;8.23;;;;;;;;;;5091076;28;20222;-80
2022/09/13 05:05:24;;;;;;;9.70;8.20;;;;;;;;;;5089216;28;20194;-80
2022/09/13 05:08:29;;;;;;;8.50;7.60;;;;;;;;;;5078872;28;20172;-80
2022/09/13 05:11:33;;;;;;;10.70;7.30;;;;;;;;;;5079710;28;20215;-80
2022/09/13 05:14:38;;;;;;;13.27;7.80;;;;;;;;;;5082401;28;20175;-80
2022/09/13 05:17:42;;;;;;;23.53;9.60;;;;;;;;;;5083178;28;20179;-79
2022/09/13 05:20:46;;;;;;;10.93;7.83;;;;;;;;;;5083303;28;20180;-79
2022/09/13 05:23:51;;;;;;;19.63;7.73;;;;;;;;;;5090808;28;20199;-80
2022/09/13 05:26:55;;;;;;;14.93;8.67;;;;;;;;;;5062628;28;20204;-79
2022/09/13 05:29:59;;;;;;;14.20;7.77;;;;;;;;;;5069785;28;20179;-79
2022/09/13 05:33:03;;;;;;;20.77;10.97;;;;;;;;;;5093125;28;20215;-80
2022/09/13 05:36:08;;;;;;;15.50;11.00;;;;;;;;;;5083237;28;20675;-80
2022/09/13 05:39:16;;;;;;;23.90;11.63;;;;;;;;;;5070035;28;20527;-80
2022/09/13 05:42:20;;;;;;;18.23;10.37;;;;;;;;;;5091160;28;20219;-79
2022/09/13 05:45:24;;;;;;;18.90;10.23;;;;;;;;;;5085039;28;20553;-79
2022/09/13 05:48:29;;;;;;;17.87;9.83;;;;;;;;;;5077336;28;20201;-79
2022/09/13 05:51:33;;;;;;;16.40;9.20;;;;;;;;;;5070059;28;20223;-80
2022/09/13 05:54:37;;;;;;;14.40;8.93;;;;;;;;;;5104472;28;20202;-80
2022/09/13 05:57:42;;;;;;;15.57;8.23;;;;;;;;;;5101454;28;20179;-80
2022/09/13 06:00:52;;;;;;;10.70;7.83;;;;;;;;;;5090828;28;20195;-79
2022/09/13 06:03:58;;;;;;;12.03;8.40;;;;;;;;;;5097489;28;20195;-80
2022/09/13 06:07:02;;;;;;;14.27;8.27;;;;;;;;;;5089401;28;20642;-79
2022/09/13 06:10:07;;;;;;;18.60;8.20;;;;;;;;;;5075207;28;20195;-80
2022/09/13 06:13:11;;;;;;;27.87;11.57;;;;;;;;;;5081203;28;20176;-80
2022/09/13 06:16:16;;;;;;;36.43;13.60;;;;;;;;;;5080405;28;20179;-80
2022/09/13 06:19:20;;;;;;;20.67;11.57;;;;;;;;;;5068873;28;20187;-80
2022/09/13 06:22:24;;;;;;;16.37;9.77;;;;;;;;;;5080587;28;20230;-80
2022/09/13 06:25:28;;;;;;;21.73;8.87;;;;;;;;;;5070134;28;20524;-80
2022/09/13 06:28:33;;;;;;;11.00;8.53;;;;;;;;;;5088627;28;20195;-80
2022/09/13 06:31:42;;;;;;;10.90;7.10;;;;;;;;;;5088743;28;20214;-80
2022/09/13 06:34:47;;;;;;;11.23;6.23;;;;;;;;;;5088829;28;20530;-80
2022/09/13 06:37:55;;;;;;;9.03;6.90;;;;;;;;;;5088551;28;20626;-80
2022/09/13 06:41:10;;;;;;;11.27;6.73;;;;;;;;;;5087733;28;20194;-80
2022/09/13 06:44:15;;;;;;;15.20;8.27;;;;;;;;;;5100414;28;20175;-80
2022/09/13 06:47:19;;;;;;;10.07;6.73;;;;;;;;;;5088502;28;20179;-79
2022/09/13 06:50:23;;;;;;;9.27;5.77;;;;;;;;;;5100267;28;20171;-80
2022/09/13 06:53:28;;;;;;;6.30;5.43;;;;;;;;;;5100645;28;20179;-80
2022/09/13 06:56:34;;;;;;;10.60;5.30;;;;;;;;;;5088126;28;20657;-80
2022/09/13 06:59:39;;;;;;;6.73;4.83;;;;;;;;;;5099401;28;20179;-80
2022/09/13 07:02:43;;;;;;;10.33;4.73;;;;;;;;;;5100081;28;20234;-80
2022/09/13 07:05:47;;;;;;;6.63;4.40;;;;;;;;;;5088599;28;20175;-80
2022/09/13 07:08:52;;;;;;;5.40;4.13;;;;;;;;;;5087824;28;20622;-80
2022/09/13 07:11:57;;;;;;;4.57;3.40;;;;;;;;;;5100513;28;20207;-80
2022/09/13 07:15:01;;;;;;;5.50;3.90;;;;;;;;;;5080870;28;20602;-80
2022/09/13 07:18:06;;;;;;;4.40;3.60;;;;;;;;;;5077245;28;20202;-80
2022/09/13 07:21:11;;;;;;;4.00;3.23;;;;;;;;;;5110679;28;20210;-80
2022/09/13 07:24:19;;;;;;;4.17;3.30;;;;;;;;;;5099588;28;20175;-80
2022/09/13 07:27:24;;;;;;;3.57;3.23;;;;;;;;;;5098754;28;20183;-80
2022/09/13 07:30:28;;;;;;;4.43;3.17;;;;;;;;;;5098216;28;20175;-80
2022/09/13 07:33:33;;;;;;;5.53;3.20;;;;;;;;;;5079687;28;20630;-80
2022/09/13 07:36:37;;;;;;;2.87;2.67;;;;;;;;;;5078057;28;20524;-80
2022/09/13 07:39:41;;;;;;;4.37;2.77;;;;;;;;;;5079013;28;20195;-80
2022/09/13 07:42:45;;;;;;;3.63;2.70;;;;;;;;;;5078423;28;20223;-80
2022/09/13 07:45:57;;;;;;;2.57;2.37;;;;;;;;;;5077840;28;20175;-80
2022/09/13 07:49:02;;;;;;;4.37;2.80;;;;;;;;;;5089150;28;20194;-79
2022/09/13 07:52:06;;;;;;;3.63;2.80;;;;;;;;;;5097820;28;20550;-78
2022/09/13 07:55:10;;;;;;;3.37;2.70;;;;;;;;;;5108819;28;20220;-78
2022/09/13 07:58:18;;;;;;;5.10;2.77;;;;;;;;;;5083355;28;20203;-77
2022/09/13 08:01:38;;;;;;;4.47;2.60;;;;;;;;;;5083274;28;20215;-78
2022/09/13 08:04:42;;;;;;;3.80;2.70;;;;;;;;;;5076923;28;20180;-78
2022/09/13 08:07:46;;;;;;;3.40;2.50;;;;;;;;;;5077059;28;20175;-78
2022/09/13 08:10:50;;;;;;;4.67;2.77;;;;;;;;;;5076930;28;20175;-78
2022/09/13 08:13:55;;;;;;;3.70;2.40;;;;;;;;;;5076837;28;20195;-78
2022/09/13 08:17:00;;;;;;;2.90;2.60;;;;;;;;;;5075556;28;20191;-79
2022/09/13 08:20:05;;;;;;;6.47;2.67;;;;;;;;;;5090761;28;20198;-78
2022/09/13 08:23:10;;;;;;;6.07;2.07;;;;;;;;;;5095306;28;20551;-77
2022/09/13 08:26:15;;;;;;;3.80;2.17;;;;;;;;;;5095210;28;20178;-78
2022/09/13 08:29:20;;;;;;;4.47;2.40;;;;;;;;;;5082649;28;20179;-78
2022/09/13 08:32:24;;;;;;;2.97;1.87;;;;;;;;;;5094627;28;20547;-77
2022/09/13 08:35:29;;;;;;;3.70;1.90;;;;;;;;;;5096056;28;20626;-78
2022/09/13 08:38:33;;;;;;;7.43;2.03;;;;;;;;;;5094903;28;20179;-78
2022/09/13 08:41:47;;;;;;;12.23;1.90;;;;;;;;;;5095207;28;20212;-77
2022/09/13 08:44:54;;;;;;;7.43;1.80;;;;;;;;;;5095389;28;20172;-78
2022/09/13 08:48:05;;;;;;;3.63;1.93;;;;;;;;;;5094150;28;20177;-78
2022/09/13 08:51:35;;;;;;;4.50;1.73;;;;;;;;;;5094109;28;20212;-77
2022/09/13 08:54:39;;;;;;;3.87;1.70;;;;;;;;;;5093074;28;20631;-78
2022/09/13 08:57:54;;;;;;;5.90;1.50;;;;;;;;;;5075048;28;20194;-78
2022/09/13 09:01:37;;;;;;;2.58;1.80;;;;;;;;;;5074859;28;20216;-78
2022/09/13 09:04:51;;;;;;;2.72;1.45;;;;;;;;;;5075007;28;20197;-78
2022/09/13 09:08:01;;;;;;;2.97;1.35;;;;;;;;;;5074126;28;20186;-78
2022/09/13 09:11:19;;;;;;;3.00;1.60;;;;;;;;;;5061634;28;20715;-78
2022/09/13 09:14:33;;;;;;;2.10;1.35;;;;;;;;;;5074395;28;20684;-78
2022/09/13 09:17:51;;;;;;;3.35;1.30;;;;;;;;;;5075637;28;20192;-78
2022/09/13 09:20:58;;;;;;;2.38;1.30;;;;;;;;;;5075387;28;20183;-78
2022/09/13 09:24:03;;;;;;;3.40;1.35;;;;;;;;;;5074559;28;20198;-77
2022/09/13 09:27:14;;;;;;;4.13;1.35;;;;;;;;;;5073932;28;20530;-78
2022/09/13 09:30:18;;;;;;;2.35;1.23;;;;;;;;;;5075203;28;20188;-78
2022/09/13 09:33:37;;;;;;;4.20;1.50;;;;;;;;;;5078454;28;20206;-78
2022/09/13 09:37:21;;;;;;;6.47;1.52;;;;;;;;;;5074451;28;20176;-79
2022/09/13 09:40:34;;;;;;;2.50;1.40;;;;;;;;;;5053233;28;20177;-78
2022/09/13 09:43:52;;;;;;;2.38;1.50;;;;;;;;;;5054661;28;20199;-78
2022/09/13 09:47:06;;;;;;;3.13;1.30;;;;;;;;;;5075707;28;20191;-79
2022/09/13 09:50:20;;;;;;;2.80;1.23;;;;;;;;;;5076709;28;20175;-79
2022/09/13 09:53:30;;;;;;;3.47;1.40;;;;;;;;;;5076816;28;20176;-79
2022/09/13 09:56:35;;;;;;;2.53;1.25;;;;;;;;;;5075963;28;20203;-79
2022/09/13 09:59:39;;;;;;;2.40;1.30;;;;;;;;;;5077559;28;20180;-79
2022/09/13 10:02:44;;;;;;;16.50;2.55;;;;;;;;;;5088447;28;20226;-78
2022/09/13 10:05:48;;;;;;;11.70;1.60;;;;;;;;;;5098644;28;20183;-78
2022/09/13 10:08:58;;;;;;;3.00;1.33;;;;;;;;;;5098783;28;20194;-79
2022/09/13 10:12:03;;;;;;;1.42;1.08;;;;;;;;;;5080245;28;20220;-79
2022/09/13 10:15:19;;;;;;;3.75;1.30;;;;;;;;;;5079370;28;20509;-79
2022/09/13 10:18:25;;;;;;;1.65;1.27;;;;;;;;;;5081039;28;20184;-79
2022/09/13 10:21:29;;;;;;;2.67;1.10;;;;;;;;;;5081180;28;20215;-79
2022/09/13 10:24:33;;;;;;;9.80;1.75;;;;;;;;;;5079367;28;20200;-79
2022/09/13 10:27:44;;;;;;;2.25;1.08;;;;;;;;;;5080100;28;20520;-79
2022/09/13 10:30:55;;;;;;;2.83;0.93;;;;;;;;;;5079806;28;20623;-78
2022/09/13 10:34:00;;;;;;;7.47;1.70;;;;;;;;;;5095173;28;20207;-79
2022/09/13 10:37:13;;;;;;;4.38;1.10;;;;;;;;;;5079733;28;20183;-79
2022/09/13 10:40:26;;;;;;;3.40;1.27;;;;;;;;;;5078974;28;20525;-78
2022/09/13 10:43:31;;;;;;;4.43;1.40;;;;;;;;;;5094383;28;20555;-79
2022/09/13 10:46:39;;;;;;;1.98;1.20;;;;;;;;;;5079377;28;20187;-79
2022/09/13 10:49:46;;;;;;;2.00;1.02;;;;;;;;;;5078878;28;20179;-79
2022/09/13 10:52:53;;;;;;;1.17;1.05;;;;;;;;;;5079935;28;20225;-79
2022/09/13 10:55:57;;;;;;;2.67;1.20;;;;;;;;;;5078553;28;20205;-79
2022/09/13 10:59:26;;;;;;;5.40;1.15;;;;;;;;;;5079164;28;20185;-78
2022/09/13 11:02:37;;;;;;;1.45;1.33;;;;;;;;;;5066630;28;20207;-78
2022/09/13 11:05:51;;;;;;;2.63;1.75;;;;;;;;;;5078752;28;20168;-79
2022/09/13 11:09:04;;;;;;;3.88;1.10;;;;;;;;;;5077768;28;20194;-78
2022/09/13 11:12:37;;;;;;;5.38;1.23;;;;;;;;;;5078221;28;20222;-78
2022/09/13 11:15:57;;;;;;;5.22;1.27;;;;;;;;;;5078575;28;20178;-78
2022/09/13 11:19:16;;;;;;;4.07;1.40;;;;;;;;;;5077440;28;20514;-78
2022/09/13 11:22:26;;;;;;;2.90;1.40;;;;;;;;;;5066399;28;20216;-79
2022/09/13 11:25:51;;;;;;;4.43;1.48;;;;;;;;;;5078578;28;20622;-79
2022/09/13 11:29:13;;;;;;;6.95;1.77;;;;;;;;;;5078893;28;20181;-78
2022/09/13 11:32:24;;;;;;;5.03;1.40;;;;;;;;;;5077136;28;20223;-78
2022/09/13 11:35:35;;;;;;;5.13;1.60;;;;;;;;;;5077344;28;20177;-79
2022/09/13 11:39:07;;;;;;;7.70;1.35;;;;;;;;;;5065267;28;20188;-77
2022/09/13 11:42:39;;;;;;;1.92;1.55;;;;;;;;;;5076431;28;20210;-77
2022/09/13 11:45:53;;;;;;;5.70;1.38;;;;;;;;;;5075708;28;20173;-78
2022/09/13 11:49:16;;;;;;;4.15;1.25;;;;;;;;;;5075435;28;20186;-78
2022/09/13 11:52:53;;;;;;;2.15;1.25;;;;;;;;;;5076400;28;20221;-77
2022/09/13 11:56:01;;;;;;;8.65;1.52;;;;;;;;;;5058935;28;20217;-77
2022/09/13 11:59:15;;;;;;;4.55;1.40;;;;;;;;;;5076054;28;20201;-77
2022/09/13 12:02:39;;;;;;;6.30;1.42;;;;;;;;;;5076166;28;20217;-78
2022/09/13 12:05:52;;;;;;;12.27;1.80;;;;;;;;;;5086990;28;20171;-78
2022/09/13 12:09:21;;;;;;;4.72;1.35;;;;;;;;;;5078959;28;20188;-79
2022/09/13 12:12:31;;;;;;;4.65;1.40;;;;;;;;;;5065650;28;20213;-79
2022/09/13 12:15:40;;;;;;;6.03;1.60;;;;;;;;;;5076743;28;20179;-78
2022/09/13 12:18:49;;;;;;;2.45;1.45;;;;;;;;;;5076865;28;20630;-78
2022/09/13 12:21:56;;;;;;;2.90;1.25;;;;;;;;;;5090639;28;20218;-78
2022/09/13 12:25:17;;;;;;;3.55;1.60;;;;;;;;;;5077253;28;20216;-79
2022/09/13 12:28:26;;;;;;;3.33;1.48;;;;;;;;;;5066382;28;20191;-79
2022/09/13 12:31:30;;;;;;;9.57;2.08;;;;;;;;;;5079135;28;20222;-79
2022/09/13 12:34:47;;;;;;;3.05;1.58;;;;;;;;;;5077782;28;20179;-79
2022/09/13 12:38:10;;;;;;;1.75;1.02;;;;;;;;;;5066939;28;20182;-79
2022/09/13 12:41:46;;;;;;;2.10;1.20;;;;;;;;;;5078232;28;20222;-79
2022/09/13 12:45:26;;;;;;;2.15;1.00;;;;;;;;;;5078180;28;20202;-79
2022/09/13 12:48:44;;;;;;;2.00;1.05;;;;;;;;;;5078814;28;20183;-79
2022/09/13 12:52:04;;;;;;;10.02;1.35;;;;;;;;;;5066032;28;20207;-79
2022/09/13 12:55:50;;;;;;;3.67;1.00;;;;;;;;;;5066367;28;20186;-79
2022/09/13 12:59:19;;;;;;;1.42;1.00;;;;;;;;;;5065794;28;20179;-79
2022/09/13 13:02:34;;;;;;;1.63;1.00;;;;;;;;;;5076551;28;20546;-79
2022/09/13 13:05:43;;;;;;;3.05;1.13;;;;;;;;;;5078144;28;20207;-79
2022/09/13 13:08:53;;;;;;;1.92;1.17;;;;;;;;;;5076763;28;20188;-78
2022/09/13 13:11:57;;;;;;;1.65;1.10;;;;;;;;;;5077411;28;20223;-79
2022/09/13 13:15:24;;;;;;;5.03;1.50;;;;;;;;;;5078814;28;20171;-79
2022/09/13 13:18:31;;;;;;;1.27;1.15;;;;;;;;;;5068639;28;20203;-79
2022/09/13 13:21:37;;;;;;;2.78;1.17;;;;;;;;;;5053630;28;20223;-79
2022/09/13 13:24:46;;;;;;;5.30;1.38;;;;;;;;;;5077526;28;20213;-79
2022/09/13 13:27:53;;;;;;;1.50;1.05;;;;;;;;;;5077881;28;20183;-79
2022/09/13 13:30:58;;;;;;;2.40;1.20;;;;;;;;;;5077358;28;20198;-79
2022/09/13 13:34:05;;;;;;;1.85;0.95;;;;;;;;;;5078891;28;20198;-79
2022/09/13 13:37:09;;;;;;;2.08;1.02;;;;;;;;;;5081002;28;20180;-79
2022/09/13 13:40:24;;;;;;;1.48;1.10;;;;;;;;;;5068063;28;20199;-79
2022/09/13 13:43:31;;;;;;;3.10;1.38;;;;;;;;;;5079847;28;20631;-80
2022/09/13 13:46:35;;;;;;;2.78;1.10;;;;;;;;;;5081213;28;20199;-79
2022/09/13 13:49:39;;;;;;;3.33;1.50;;;;;;;;;;5080895;28;20176;-79
2022/09/13 13:52:55;;;;;;;19.75;1.90;;;;;;;;;;5081363;28;20222;-79
2022/09/13 13:56:17;;;;;;;6.15;1.30;;;;;;;;;;5081051;28;20200;-80
2022/09/13 13:59:31;;;;;;;3.35;1.27;;;;;;;;;;5069003;28;20184;-80
2022/09/13 14:02:44;;;;;;;1.85;1.40;;;;;;;;;;5079267;28;20218;-80
2022/09/13 14:06:01;;;;;;;1.52;1.20;;;;;;;;;;5079353;28;20203;-80
2022/09/13 14:09:18;;;;;;;2.60;1.55;;;;;;;;;;5055857;28;20187;-79
2022/09/13 14:12:50;;;;;;;2.58;1.30;;;;;;;;;;5079350;28;20225;-80
2022/09/13 14:16:13;;;;;;;1.52;1.17;;;;;;;;;;5078764;28;20518;-79
2022/09/13 14:19:30;;;;;;;3.05;1.20;;;;;;;;;;5067112;28;20186;-79
2022/09/13 14:22:34;;;;;;;4.63;1.52;;;;;;;;;;5078824;28;20218;-79
2022/09/13 14:25:38;;;;;;;1.48;1.38;;;;;;;;;;5078864;28;20200;-79
2022/09/13 14:28:42;;;;;;;3.15;1.40;;;;;;;;;;5078625;28;20184;-80
2022/09/13 14:31:48;;;;;;;9.50;1.98;;;;;;;;;;5078359;28;20676;-80
2022/09/13 14:35:05;;;;;;;2.85;1.65;;;;;;;;;;5076955;28;20197;-80
2022/09/13 14:38:25;;;;;;;5.15;2.30;;;;;;;;;;5077453;28;20185;-80
2022/09/13 14:41:33;;;;;;;1.98;1.83;;;;;;;;;;5076840;28;20219;-80
2022/09/13 14:44:43;;;;;;;3.08;1.75;;;;;;;;;;5076703;28;20210;-80
2022/09/13 14:47:51;;;;;;;3.22;1.73;;;;;;;;;;5065787;28;20195;-80
2022/09/13 14:50:57;;;;;;;8.20;1.70;;;;;;;;;;5073802;28;20193;-80
2022/09/13 14:54:20;;;;;;;5.70;1.60;;;;;;;;;;5097914;28;20192;-79
2022/09/13 14:57:37;;;;;;;5.97;1.65;;;;;;;;;;5104313;28;20198;-80
2022/09/13 15:00:54;;;;;;;1.80;1.30;;;;;;;;;;5080455;28;20197;-80
2022/09/13 15:04:00;;;;;;;3.17;1.50;;;;;;;;;;5098226;28;20675;-80
2022/09/13 15:07:29;;;;;;;5.05;1.77;;;;;;;;;;5095832;28;20557;-80
2022/09/13 15:10:42;;;;;;;7.78;2.60;;;;;;;;;;5098117;28;20192;-80
2022/09/13 15:13:46;;;;;;;3.03;1.88;;;;;;;;;;5081447;28;20531;-81
2022/09/13 15:17:13;;;;;;;4.35;2.05;;;;;;;;;;5086076;28;20180;-81
2022/09/13 15:20:16;;;;;;;6.13;2.43;;;;;;;;;;5086914;28;20404;-81
2022/09/13 15:23:26;;;;;;;3.55;1.90;;;;;;;;;;5070280;28;20656;-81
2022/09/13 15:26:31;;;;;;;4.07;2.30;;;;;;;;;;5108739;28;20180;-81
2022/09/13 15:29:36;;;;;;;5.13;2.50;;;;;;;;;;5092009;28;20206;-80
2022/09/13 15:32:42;;;;;;;5.73;2.40;;;;;;;;;;5101508;28;20244;-81
2022/09/13 15:35:46;;;;;;;6.40;2.20;;;;;;;;;;5093739;28;20185;-81
2022/09/13 15:39:18;;;;;;;3.97;2.20;;;;;;;;;;5089562;28;20184;-81
2022/09/13 15:42:23;;;;;;;2.67;2.10;;;;;;;;;;5097573;28;20226;-81
2022/09/13 15:45:30;;;;;;;8.13;2.30;;;;;;;;;;5098695;28;20682;-81
2022/09/13 15:48:35;;;;;;;2.30;2.10;;;;;;;;;;5097648;28;20185;-80
2022/09/13 15:51:41;;;;;;;5.97;2.73;;;;;;;;;;5097968;28;20208;-80
2022/09/13 15:54:50;;;;;;;7.23;2.70;;;;;;;;;;5109941;28;20184;-81
2022/09/13 15:57:54;;;;;;;9.33;2.30;;;;;;;;;;5071530;28;20183;-81
2022/09/13 16:00:59;;;;;;;11.27;2.60;;;;;;;;;;5099031;28;20194;-81
2022/09/13 16:04:03;;;;;;;5.93;2.60;;;;;;;;;;5086212;28;20179;-80
2022/09/13 16:07:09;;;;;;;7.17;2.93;;;;;;;;;;5098289;28;20539;-80
2022/09/13 16:10:19;;;;;;;3.90;2.80;;;;;;;;;;5087765;28;20195;-80
2022/09/13 16:13:23;;;;;;;4.53;2.30;;;;;;;;;;5073532;28;20532;-80
2022/09/13 16:16:28;;;;;;;7.63;2.40;;;;;;;;;;5091794;28;20191;-80
2022/09/13 16:19:33;;;;;;;5.77;2.67;;;;;;;;;;5085182;28;20197;-80
2022/09/13 16:22:38;;;;;;;6.43;2.20;;;;;;;;;;5108469;28;20230;-81
2022/09/13 16:25:42;;;;;;;5.67;2.37;;;;;;;;;;5074079;28;20209;-80
2022/09/13 16:28:46;;;;;;;2.37;2.10;;;;;;;;;;5097734;28;20177;-81
2022/09/13 16:31:51;;;;;;;3.93;2.70;;;;;;;;;;5107855;28;20220;-80
2022/09/13 16:34:56;;;;;;;10.20;3.17;;;;;;;;;;5086759;28;20182;-77
2022/09/13 16:38:00;;;;;;;8.23;2.97;;;;;;;;;;5082744;28;20186;-77
2022/09/13 16:41:05;;;;;;;6.07;2.67;;;;;;;;;;5083382;28;20215;-78
2022/09/13 16:44:09;;;;;;;50.50;6.17;;;;;;;;;;5083334;28;20181;-78
2022/09/13 16:47:13;;;;;;;11.30;3.83;;;;;;;;;;5094797;28;20183;-77
2022/09/13 16:50:18;;;;;;;11.13;3.93;;;;;;;;;;5082958;28;20179;-78
2022/09/13 16:53:22;;;;;;;6.17;3.00;;;;;;;;;;5094357;28;20179;-78
2022/09/13 16:56:26;;;;;;;11.43;3.70;;;;;;;;;;5095007;28;20200;-78
2022/09/13 16:59:31;;;;;;;7.70;3.27;;;;;;;;;;5095490;28;20183;-78
2022/09/13 17:02:36;;;;;;;9.37;3.57;;;;;;;;;;5095423;28;20215;-79
2022/09/13 17:05:40;;;;;;;10.47;3.40;;;;;;;;;;5082403;28;20211;-78
2022/09/13 17:08:49;;;;;;;11.40;3.80;;;;;;;;;;5094297;28;20207;-78
2022/09/13 17:11:54;;;;;;;12.40;4.83;;;;;;;;;;5095358;28;20219;-78
2022/09/13 17:14:58;;;;;;;12.17;4.90;;;;;;;;;;5083634;28;20170;-78
2022/09/13 17:18:02;;;;;;;9.97;4.20;;;;;;;;;;5096183;28;20282;-78
2022/09/13 17:21:06;;;;;;;7.77;3.30;;;;;;;;;;5084651;28;20551;-78
2022/09/13 17:24:11;;;;;;;6.83;3.40;;;;;;;;;;5096237;28;20178;-78
2022/09/13 17:27:15;;;;;;;12.63;3.20;;;;;;;;;;5096469;28;20175;-78
2022/09/13 17:30:19;;;;;;;8.53;3.83;;;;;;;;;;5071585;28;20535;-77
2022/09/13 17:33:23;;;;;;;7.87;3.37;;;;;;;;;;5082520;28;20190;-77
2022/09/13 17:36:27;;;;;;;10.27;3.90;;;;;;;;;;5105606;28;20195;-78
2022/09/13 17:39:32;;;;;;;8.00;3.97;;;;;;;;;;5104577;28;20649;-77
2022/09/13 17:42:50;;;;;;;24.27;4.17;;;;;;;;;;5081767;28;20219;-77
2022/09/13 17:45:55;;;;;;;10.33;3.73;;;;;;;;;;5105546;28;20207;-77
2022/09/13 17:48:59;;;;;;;11.93;3.20;;;;;;;;;;5081858;28;20190;-78
2022/09/13 17:52:03;;;;;;;8.97;3.80;;;;;;;;;;5092913;28;20218;-78
2022/09/13 17:55:08;;;;;;;4.77;3.70;;;;;;;;;;5095614;28;20622;-78
2022/09/13 17:58:12;;;;;;;4.23;3.73;;;;;;;;;;5083865;28;20187;-78
2022/09/13 18:01:16;;;;;;;5.90;3.87;;;;;;;;;;5094247;28;20214;-78
2022/09/13 18:04:22;;;;;;;5.43;3.63;;;;;;;;;;5095634;28;20179;-78
2022/09/13 18:07:26;;;;;;;6.43;4.07;;;;;;;;;;5082341;28;20175;-77
2022/09/13 18:10:30;;;;;;;4.87;4.00;;;;;;;;;;5080513;28;20187;-77
2022/09/13 18:13:35;;;;;;;5.00;4.50;;;;;;;;;;5094192;28;20179;-77
2022/09/13 18:16:40;;;;;;;4.63;4.23;;;;;;;;;;5105553;28;20179;-77
2022/09/13 18:19:44;;;;;;;6.10;4.43;;;;;;;;;;5086309;28;20195;-78
2022/09/13 18:22:48;;;;;;;5.23;4.33;;;;;;;;;;5077739;28;20706;-76
2022/09/13 18:26:00;;;;;;;5.33;4.37;;;;;;;;;;5054566;28;20199;-77
2022/09/13 18:29:11;;;;;;;10.27;4.60;;;;;;;;;;5077094;28;20531;-78
2022/09/13 18:32:15;;;;;;;9.30;4.70;;;;;;;;;;5079383;28;20219;-80
2022/09/13 18:35:19;;;;;;;4.80;4.40;;;;;;;;;;5079348;28;20180;-79
2022/09/13 18:38:24;;;;;;;6.80;4.63;;;;;;;;;;5078374;28;20184;-79
2022/09/13 18:41:36;;;;;;;7.90;4.07;;;;;;;;;;5079389;28;20206;-80
2022/09/13 18:44:40;;;;;;;6.17;4.60;;;;;;;;;;5080797;28;20187;-79
2022/09/13 18:47:45;;;;;;;8.60;4.73;;;;;;;;;;5079123;28;20175;-78
2022/09/13 18:50:49;;;;;;;6.90;4.50;;;;;;;;;;5065760;28;20183;-78
2022/09/13 18:53:54;;;;;;;8.20;5.00;;;;;;;;;;5076660;28;20179;-77